sensor_id;sensor_type;location;lat;lon;timestamp;P1;durP1;ratioP1;P2;durP2;ratioP2
52512;SDS011;38422;53.172;6.974;2023-08-17T00:02:00;4.38;;;1.60;;
52512;SDS011;38422;53.172;6.974;2023-08-17T00:04:25;2.90;;;1.50;;
52512;SDS011;38422;53.172;6.974;2023-08-17T00:06:51;4.30;;;1.52;;
52512;SDS011;38422;53.172;6.974;2023-08-17T00:09:17;4.88;;;1.67;;
52512;SDS011;38422;53.172;6.974;2023-08-17T00:11:43;4.43;;;1.48;;
52512;SDS011;38422;53.172;6.974;2023-08-17T00:14:08;3.90;;;1.52;;
52512;SDS011;38422;53.172;6.974;2023-08-17T00:16:35;5.18;;;1.30;;
52512;SDS011;38422;53.172;6.974;2023-08-17T00:19:00;3.33;;;1.17;;
52512;SDS011;38422;53.172;6.974;2023-08-17T00:21:27;4.23;;;1.27;;
52512;SDS011;38422;53.172;6.974;2023-08-17T00:23:53;4.65;;;1.17;;
52512;SDS011;38422;53.172;6.974;2023-08-17T00:26:18;2.17;;;1.10;;
52512;SDS011;38422;53.172;6.974;2023-08-17T00:28:45;2.95;;;1.05;;
52512;SDS011;38422;53.172;6.974;2023-08-17T00:31:10;2.97;;;1.10;;
52512;SDS011;38422;53.172;6.974;2023-08-17T00:33:36;3.00;;;1.27;;
52512;SDS011;38422;53.172;6.974;2023-08-17T00:36:02;5.53;;;1.50;;
52512;SDS011;38422;53.172;6.974;2023-08-17T00:38:28;2.88;;;1.23;;
52512;SDS011;38422;53.172;6.974;2023-08-17T00:40:54;6.82;;;1.50;;
52512;SDS011;38422;53.172;6.974;2023-08-17T00:43:20;4.03;;;1.40;;
52512;SDS011;38422;53.172;6.974;2023-08-17T00:45:46;6.60;;;1.38;;
52512;SDS011;38422;53.172;6.974;2023-08-17T00:48:12;2.75;;;1.20;;
52512;SDS011;38422;53.172;6.974;2023-08-17T00:50:38;3.78;;;1.20;;
52512;SDS011;38422;53.172;6.974;2023-08-17T00:53:05;4.03;;;1.40;;
52512;SDS011;38422;53.172;6.974;2023-08-17T00:55:32;4.17;;;1.13;;
52512;SDS011;38422;53.172;6.974;2023-08-17T00:57:58;2.75;;;1.10;;
52512;SDS011;38422;53.172;6.974;2023-08-17T01:00:24;3.50;;;1.08;;
52512;SDS011;38422;53.172;6.974;2023-08-17T01:02:53;5.80;;;1.35;;
52512;SDS011;38422;53.172;6.974;2023-08-17T01:05:18;3.97;;;1.30;;
52512;SDS011;38422;53.172;6.974;2023-08-17T01:07:44;4.05;;;1.50;;
52512;SDS011;38422;53.172;6.974;2023-08-17T01:10:10;2.72;;;1.73;;
52512;SDS011;38422;53.172;6.974;2023-08-17T01:12:38;5.90;;;1.85;;
52512;SDS011;38422;53.172;6.974;2023-08-17T01:20:49;5.97;;;2.00;;
52512;SDS011;38422;53.172;6.974;2023-08-17T01:23:15;3.63;;;1.83;;
52512;SDS011;38422;53.172;6.974;2023-08-17T01:25:41;6.00;;;1.80;;
52512;SDS011;38422;53.172;6.974;2023-08-17T01:28:07;5.38;;;2.13;;
52512;SDS011;38422;53.172;6.974;2023-08-17T01:30:37;3.90;;;1.88;;
52512;SDS011;38422;53.172;6.974;2023-08-17T01:33:09;5.53;;;1.88;;
52512;SDS011;38422;53.172;6.974;2023-08-17T01:35:44;4.90;;;1.77;;
52512;SDS011;38422;53.172;6.974;2023-08-17T01:38:23;5.70;;;1.60;;
52512;SDS011;38422;53.172;6.974;2023-08-17T01:40:50;4.00;;;1.70;;
52512;SDS011;38422;53.172;6.974;2023-08-17T01:43:18;3.65;;;1.90;;
52512;SDS011;38422;53.172;6.974;2023-08-17T01:45:47;6.82;;;2.15;;
52512;SDS011;38422;53.172;6.974;2023-08-17T01:48:13;4.28;;;1.85;;
52512;SDS011;38422;53.172;6.974;2023-08-17T01:50:39;4.18;;;2.05;;
52512;SDS011;38422;53.172;6.974;2023-08-17T01:53:05;5.32;;;2.20;;
52512;SDS011;38422;53.172;6.974;2023-08-17T01:55:30;5.88;;;2.10;;
52512;SDS011;38422;53.172;6.974;2023-08-17T01:57:56;2.67;;;1.70;;
52512;SDS011;38422;53.172;6.974;2023-08-17T02:00:22;3.53;;;1.88;;
52512;SDS011;38422;53.172;6.974;2023-08-17T02:02:47;6.50;;;2.50;;
52512;SDS011;38422;53.172;6.974;2023-08-17T02:05:13;4.30;;;2.10;;
52512;SDS011;38422;53.172;6.974;2023-08-17T02:07:39;5.13;;;2.33;;
52512;SDS011;38422;53.172;6.974;2023-08-17T02:10:05;4.57;;;2.38;;
52512;SDS011;38422;53.172;6.974;2023-08-17T02:12:31;7.97;;;2.17;;
52512;SDS011;38422;53.172;6.974;2023-08-17T02:14:56;3.85;;;2.00;;
52512;SDS011;38422;53.172;6.974;2023-08-17T02:17:22;3.70;;;1.83;;
52512;SDS011;38422;53.172;6.974;2023-08-17T02:19:47;3.38;;;1.65;;
52512;SDS011;38422;53.172;6.974;2023-08-17T02:22:13;4.10;;;1.70;;
52512;SDS011;38422;53.172;6.974;2023-08-17T02:24:39;10.70;;;2.45;;
52512;SDS011;38422;53.172;6.974;2023-08-17T02:27:06;4.50;;;1.70;;
52512;SDS011;38422;53.172;6.974;2023-08-17T02:29:32;6.53;;;2.27;;
52512;SDS011;38422;53.172;6.974;2023-08-17T02:31:57;4.38;;;2.13;;
52512;SDS011;38422;53.172;6.974;2023-08-17T02:34:23;2.97;;;1.90;;
52512;SDS011;38422;53.172;6.974;2023-08-17T02:36:49;4.90;;;2.30;;
52512;SDS011;38422;53.172;6.974;2023-08-17T02:39:15;5.03;;;2.15;;
52512;SDS011;38422;53.172;6.974;2023-08-17T02:41:40;4.20;;;2.00;;
52512;SDS011;38422;53.172;6.974;2023-08-17T02:44:06;5.13;;;2.15;;
52512;SDS011;38422;53.172;6.974;2023-08-17T02:46:31;5.30;;;2.58;;
52512;SDS011;38422;53.172;6.974;2023-08-17T02:48:57;5.85;;;2.40;;
52512;SDS011;38422;53.172;6.974;2023-08-17T02:51:23;7.50;;;2.72;;
52512;SDS011;38422;53.172;6.974;2023-08-17T02:53:49;5.65;;;3.22;;
52512;SDS011;38422;53.172;6.974;2023-08-17T02:56:14;7.00;;;3.08;;
52512;SDS011;38422;53.172;6.974;2023-08-17T02:58:40;6.82;;;3.38;;
52512;SDS011;38422;53.172;6.974;2023-08-17T03:01:07;6.95;;;3.97;;
52512;SDS011;38422;53.172;6.974;2023-08-17T03:03:33;9.95;;;4.32;;
52512;SDS011;38422;53.172;6.974;2023-08-17T03:05:59;7.38;;;4.45;;
52512;SDS011;38422;53.172;6.974;2023-08-17T03:08:26;5.47;;;3.55;;
52512;SDS011;38422;53.172;6.974;2023-08-17T03:10:51;5.80;;;3.10;;
52512;SDS011;38422;53.172;6.974;2023-08-17T03:13:17;6.95;;;2.80;;
52512;SDS011;38422;53.172;6.974;2023-08-17T03:15:43;6.20;;;2.90;;
52512;SDS011;38422;53.172;6.974;2023-08-17T03:18:08;5.03;;;2.38;;
52512;SDS011;38422;53.172;6.974;2023-08-17T03:20:34;6.47;;;2.70;;
52512;SDS011;38422;53.172;6.974;2023-08-17T03:23:00;5.57;;;2.75;;
52512;SDS011;38422;53.172;6.974;2023-08-17T03:25:26;5.18;;;2.70;;
52512;SDS011;38422;53.172;6.974;2023-08-17T03:27:51;5.75;;;2.95;;
52512;SDS011;38422;53.172;6.974;2023-08-17T03:30:17;5.95;;;3.30;;
52512;SDS011;38422;53.172;6.974;2023-08-17T03:32:43;5.32;;;3.55;;
52512;SDS011;38422;53.172;6.974;2023-08-17T03:35:08;8.80;;;4.95;;
52512;SDS011;38422;53.172;6.974;2023-08-17T03:37:34;9.90;;;6.22;;
52512;SDS011;38422;53.172;6.974;2023-08-17T03:40:00;9.18;;;6.93;;
52512;SDS011;38422;53.172;6.974;2023-08-17T03:42:26;9.65;;;7.00;;
52512;SDS011;38422;53.172;6.974;2023-08-17T03:44:52;8.07;;;6.65;;
52512;SDS011;38422;53.172;6.974;2023-08-17T03:47:18;9.88;;;5.55;;
52512;SDS011;38422;53.172;6.974;2023-08-17T03:49:44;10.15;;;6.10;;
52512;SDS011;38422;53.172;6.974;2023-08-17T03:52:10;7.85;;;6.43;;
52512;SDS011;38422;53.172;6.974;2023-08-17T03:54:35;10.25;;;7.10;;
52512;SDS011;38422;53.172;6.974;2023-08-17T03:57:01;9.60;;;7.63;;
52512;SDS011;38422;53.172;6.974;2023-08-17T03:59:27;12.68;;;10.00;;
52512;SDS011;38422;53.172;6.974;2023-08-17T04:01:53;11.20;;;9.93;;
52512;SDS011;38422;53.172;6.974;2023-08-17T04:04:19;13.57;;;11.00;;
52512;SDS011;38422;53.172;6.974;2023-08-17T04:06:44;12.00;;;9.55;;
52512;SDS011;38422;53.172;6.974;2023-08-17T04:09:10;13.23;;;9.10;;
52512;SDS011;38422;53.172;6.974;2023-08-17T04:11:36;11.70;;;9.10;;
52512;SDS011;38422;53.172;6.974;2023-08-17T04:14:02;10.05;;;7.28;;
52512;SDS011;38422;53.172;6.974;2023-08-17T04:16:28;10.15;;;6.68;;
52512;SDS011;38422;53.172;6.974;2023-08-17T04:18:54;8.52;;;6.90;;
52512;SDS011;38422;53.172;6.974;2023-08-17T04:21:20;14.63;;;8.65;;
52512;SDS011;38422;53.172;6.974;2023-08-17T04:23:45;10.70;;;9.07;;
52512;SDS011;38422;53.172;6.974;2023-08-17T04:26:11;11.07;;;8.30;;
52512;SDS011;38422;53.172;6.974;2023-08-17T04:28:37;10.23;;;6.90;;
52512;SDS011;38422;53.172;6.974;2023-08-17T04:31:03;12.55;;;6.50;;
52512;SDS011;38422;53.172;6.974;2023-08-17T04:33:29;10.13;;;6.75;;
52512;SDS011;38422;53.172;6.974;2023-08-17T04:35:54;9.05;;;6.50;;
52512;SDS011;38422;53.172;6.974;2023-08-17T04:38:20;10.20;;;6.38;;
52512;SDS011;38422;53.172;6.974;2023-08-17T04:40:46;7.25;;;4.80;;
52512;SDS011;38422;53.172;6.974;2023-08-17T04:43:12;5.70;;;3.10;;
52512;SDS011;38422;53.172;6.974;2023-08-17T04:45:38;6.03;;;2.45;;
52512;SDS011;38422;53.172;6.974;2023-08-17T04:48:04;4.82;;;2.20;;
52512;SDS011;38422;53.172;6.974;2023-08-17T04:50:31;5.85;;;2.20;;
52512;SDS011;38422;53.172;6.974;2023-08-17T04:52:57;4.30;;;1.95;;
52512;SDS011;38422;53.172;6.974;2023-08-17T04:55:23;5.28;;;2.28;;
52512;SDS011;38422;53.172;6.974;2023-08-17T04:57:49;4.88;;;2.67;;
52512;SDS011;38422;53.172;6.974;2023-08-17T05:00:15;4.88;;;2.40;;
52512;SDS011;38422;53.172;6.974;2023-08-17T05:02:41;6.13;;;2.45;;
52512;SDS011;38422;53.172;6.974;2023-08-17T05:05:10;7.88;;;2.55;;
52512;SDS011;38422;53.172;6.974;2023-08-17T05:07:36;8.18;;;2.60;;
52512;SDS011;38422;53.172;6.974;2023-08-17T05:10:02;6.63;;;3.03;;
52512;SDS011;38422;53.172;6.974;2023-08-17T05:12:27;4.55;;;3.50;;
52512;SDS011;38422;53.172;6.974;2023-08-17T05:14:53;11.95;;;4.20;;
52512;SDS011;38422;53.172;6.974;2023-08-17T05:17:19;8.18;;;4.10;;
52512;SDS011;38422;53.172;6.974;2023-08-17T05:19:45;6.05;;;3.50;;
52512;SDS011;38422;53.172;6.974;2023-08-17T05:22:11;6.78;;;3.40;;
52512;SDS011;38422;53.172;6.974;2023-08-17T05:24:38;4.85;;;3.00;;
52512;SDS011;38422;53.172;6.974;2023-08-17T05:27:04;7.13;;;3.05;;
52512;SDS011;38422;53.172;6.974;2023-08-17T05:29:30;6.28;;;2.40;;
52512;SDS011;38422;53.172;6.974;2023-08-17T05:31:59;5.28;;;2.00;;
52512;SDS011;38422;53.172;6.974;2023-08-17T05:34:25;6.70;;;2.22;;
52512;SDS011;38422;53.172;6.974;2023-08-17T05:36:51;5.45;;;2.30;;
52512;SDS011;38422;53.172;6.974;2023-08-17T05:39:17;5.35;;;1.70;;
52512;SDS011;38422;53.172;6.974;2023-08-17T05:41:43;6.25;;;2.00;;
52512;SDS011;38422;53.172;6.974;2023-08-17T05:44:08;4.20;;;1.65;;
52512;SDS011;38422;53.172;6.974;2023-08-17T05:46:34;6.00;;;1.67;;
52512;SDS011;38422;53.172;6.974;2023-08-17T05:49:00;3.65;;;1.25;;
52512;SDS011;38422;53.172;6.974;2023-08-17T05:51:27;4.07;;;1.33;;
52512;SDS011;38422;53.172;6.974;2023-08-17T05:53:52;5.20;;;1.30;;
52512;SDS011;38422;53.172;6.974;2023-08-17T05:56:18;4.32;;;1.27;;
52512;SDS011;38422;53.172;6.974;2023-08-17T05:58:43;4.25;;;1.30;;
52512;SDS011;38422;53.172;6.974;2023-08-17T06:01:09;3.70;;;1.00;;
52512;SDS011;38422;53.172;6.974;2023-08-17T06:03:36;4.88;;;1.02;;
52512;SDS011;38422;53.172;6.974;2023-08-17T06:06:05;3.70;;;1.00;;
52512;SDS011;38422;53.172;6.974;2023-08-17T06:08:31;2.35;;;0.90;;
52512;SDS011;38422;53.172;6.974;2023-08-17T06:10:57;3.92;;;1.30;;
52512;SDS011;38422;53.172;6.974;2023-08-17T06:13:23;4.95;;;1.30;;
52512;SDS011;38422;53.172;6.974;2023-08-17T06:15:49;5.22;;;1.60;;
52512;SDS011;38422;53.172;6.974;2023-08-17T06:18:14;6.00;;;1.45;;
52512;SDS011;38422;53.172;6.974;2023-08-17T06:20:41;4.50;;;1.33;;
52512;SDS011;38422;53.172;6.974;2023-08-17T06:23:07;5.20;;;1.37;;
52512;SDS011;38422;53.172;6.974;2023-08-17T06:25:33;4.85;;;1.23;;
52512;SDS011;38422;53.172;6.974;2023-08-17T06:27:59;4.38;;;0.90;;
52512;SDS011;38422;53.172;6.974;2023-08-17T06:30:26;6.82;;;1.13;;
52512;SDS011;38422;53.172;6.974;2023-08-17T06:32:51;2.55;;;0.80;;
52512;SDS011;38422;53.172;6.974;2023-08-17T06:35:17;6.03;;;1.10;;
52512;SDS011;38422;53.172;6.974;2023-08-17T06:37:43;4.88;;;1.00;;
52512;SDS011;38422;53.172;6.974;2023-08-17T06:40:09;3.15;;;1.00;;
52512;SDS011;38422;53.172;6.974;2023-08-17T06:42:35;4.90;;;1.15;;
52512;SDS011;38422;53.172;6.974;2023-08-17T06:45:01;2.53;;;0.90;;
52512;SDS011;38422;53.172;6.974;2023-08-17T06:47:27;2.50;;;0.85;;
52512;SDS011;38422;53.172;6.974;2023-08-17T06:49:54;4.20;;;1.00;;
52512;SDS011;38422;53.172;6.974;2023-08-17T06:52:20;5.30;;;0.88;;
52512;SDS011;38422;53.172;6.974;2023-08-17T06:54:45;3.08;;;0.82;;
52512;SDS011;38422;53.172;6.974;2023-08-17T06:57:11;3.47;;;0.85;;
52512;SDS011;38422;53.172;6.974;2023-08-17T06:59:37;3.63;;;0.90;;
52512;SDS011;38422;53.172;6.974;2023-08-17T07:02:02;3.92;;;0.98;;
52512;SDS011;38422;53.172;6.974;2023-08-17T07:04:28;3.75;;;0.90;;
52512;SDS011;38422;53.172;6.974;2023-08-17T07:06:54;3.38;;;0.90;;
52512;SDS011;38422;53.172;6.974;2023-08-17T07:09:20;2.08;;;0.80;;
52512;SDS011;38422;53.172;6.974;2023-08-17T07:11:46;4.40;;;0.95;;
52512;SDS011;38422;53.172;6.974;2023-08-17T07:14:12;3.33;;;1.15;;
52512;SDS011;38422;53.172;6.974;2023-08-17T07:16:37;3.35;;;1.10;;
52512;SDS011;38422;53.172;6.974;2023-08-17T07:19:03;1.92;;;0.75;;
52512;SDS011;38422;53.172;6.974;2023-08-17T07:21:29;3.53;;;0.80;;
52512;SDS011;38422;53.172;6.974;2023-08-17T07:23:55;3.47;;;0.77;;
52512;SDS011;38422;53.172;6.974;2023-08-17T07:26:21;2.95;;;1.00;;
52512;SDS011;38422;53.172;6.974;2023-08-17T07:28:48;4.57;;;1.00;;
52512;SDS011;38422;53.172;6.974;2023-08-17T07:31:14;4.10;;;0.80;;
52512;SDS011;38422;53.172;6.974;2023-08-17T07:33:40;2.13;;;0.73;;
52512;SDS011;38422;53.172;6.974;2023-08-17T07:36:06;3.78;;;0.80;;
52512;SDS011;38422;53.172;6.974;2023-08-17T07:38:31;3.47;;;0.73;;
52512;SDS011;38422;53.172;6.974;2023-08-17T07:40:57;2.03;;;0.80;;
52512;SDS011;38422;53.172;6.974;2023-08-17T07:43:23;2.85;;;0.70;;
52512;SDS011;38422;53.172;6.974;2023-08-17T07:45:53;4.28;;;0.98;;
52512;SDS011;38422;53.172;6.974;2023-08-17T07:48:20;3.92;;;1.02;;
52512;SDS011;38422;53.172;6.974;2023-08-17T07:50:52;4.10;;;1.00;;
52512;SDS011;38422;53.172;6.974;2023-08-17T07:53:18;3.10;;;0.70;;
52512;SDS011;38422;53.172;6.974;2023-08-17T07:55:44;2.75;;;0.95;;
52512;SDS011;38422;53.172;6.974;2023-08-17T07:58:10;3.40;;;0.80;;
52512;SDS011;38422;53.172;6.974;2023-08-17T08:00:36;4.20;;;0.70;;
52512;SDS011;38422;53.172;6.974;2023-08-17T08:03:02;2.03;;;0.60;;
52512;SDS011;38422;53.172;6.974;2023-08-17T08:05:28;2.05;;;0.70;;
52512;SDS011;38422;53.172;6.974;2023-08-17T08:07:54;2.80;;;0.80;;
52512;SDS011;38422;53.172;6.974;2023-08-17T08:10:20;1.15;;;0.55;;
52512;SDS011;38422;53.172;6.974;2023-08-17T08:12:45;1.85;;;0.70;;
52512;SDS011;38422;53.172;6.974;2023-08-17T08:15:11;1.48;;;0.57;;
52512;SDS011;38422;53.172;6.974;2023-08-17T08:17:37;1.52;;;0.60;;
52512;SDS011;38422;53.172;6.974;2023-08-17T08:20:03;3.05;;;0.70;;
52512;SDS011;38422;53.172;6.974;2023-08-17T08:22:29;2.83;;;0.98;;
52512;SDS011;38422;53.172;6.974;2023-08-17T08:24:55;2.03;;;0.60;;
52512;SDS011;38422;53.172;6.974;2023-08-17T08:27:21;4.72;;;0.75;;
52512;SDS011;38422;53.172;6.974;2023-08-17T08:29:46;4.95;;;0.85;;
52512;SDS011;38422;53.172;6.974;2023-08-17T08:32:12;1.38;;;0.57;;
52512;SDS011;38422;53.172;6.974;2023-08-17T08:34:38;2.15;;;0.60;;
52512;SDS011;38422;53.172;6.974;2023-08-17T08:37:04;2.20;;;0.60;;
52512;SDS011;38422;53.172;6.974;2023-08-17T08:39:29;3.08;;;0.68;;
52512;SDS011;38422;53.172;6.974;2023-08-17T08:41:55;2.42;;;0.80;;
52512;SDS011;38422;53.172;6.974;2023-08-17T08:44:21;3.50;;;0.90;;
52512;SDS011;38422;53.172;6.974;2023-08-17T08:46:48;3.53;;;0.90;;
52512;SDS011;38422;53.172;6.974;2023-08-17T08:49:16;3.42;;;0.77;;
52512;SDS011;38422;53.172;6.974;2023-08-17T08:51:48;3.90;;;0.70;;
52512;SDS011;38422;53.172;6.974;2023-08-17T08:54:20;2.22;;;0.50;;
52512;SDS011;38422;53.172;6.974;2023-08-17T08:56:51;2.38;;;0.80;;
52512;SDS011;38422;53.172;6.974;2023-08-17T08:59:23;1.80;;;0.60;;
52512;SDS011;38422;53.172;6.974;2023-08-17T09:01:52;2.95;;;0.63;;
52512;SDS011;38422;53.172;6.974;2023-08-17T09:04:18;1.85;;;0.65;;
52512;SDS011;38422;53.172;6.974;2023-08-17T09:06:44;3.10;;;0.63;;
52512;SDS011;38422;53.172;6.974;2023-08-17T09:14:05;2.47;;;0.82;;
52512;SDS011;38422;53.172;6.974;2023-08-17T09:16:32;2.35;;;0.77;;
52512;SDS011;38422;53.172;6.974;2023-08-17T09:18:57;3.05;;;0.68;;
52512;SDS011;38422;53.172;6.974;2023-08-17T09:21:24;2.35;;;0.70;;
52512;SDS011;38422;53.172;6.974;2023-08-17T09:23:54;3.17;;;0.75;;
52512;SDS011;38422;53.172;6.974;2023-08-17T09:26:20;2.75;;;0.68;;
52512;SDS011;38422;53.172;6.974;2023-08-17T09:28:48;2.85;;;0.50;;
52512;SDS011;38422;53.172;6.974;2023-08-17T09:31:20;4.70;;;0.70;;
52512;SDS011;38422;53.172;6.974;2023-08-17T09:33:48;3.20;;;0.73;;
52512;SDS011;38422;53.172;6.974;2023-08-17T09:36:19;2.38;;;0.80;;
52512;SDS011;38422;53.172;6.974;2023-08-17T09:38:47;2.13;;;0.88;;
52512;SDS011;38422;53.172;6.974;2023-08-17T09:41:19;4.07;;;0.80;;
52512;SDS011;38422;53.172;6.974;2023-08-17T09:43:45;1.58;;;0.70;;
52512;SDS011;38422;53.172;6.974;2023-08-17T09:46:12;2.33;;;0.77;;
52512;SDS011;38422;53.172;6.974;2023-08-17T09:48:37;3.97;;;0.82;;
52512;SDS011;38422;53.172;6.974;2023-08-17T09:51:03;3.13;;;0.60;;
52512;SDS011;38422;53.172;6.974;2023-08-17T09:53:34;3.45;;;0.93;;
52512;SDS011;38422;53.172;6.974;2023-08-17T09:56:02;2.60;;;0.90;;
52512;SDS011;38422;53.172;6.974;2023-08-17T09:58:28;3.33;;;0.70;;
52512;SDS011;38422;53.172;6.974;2023-08-17T10:00:54;2.90;;;0.80;;
52512;SDS011;38422;53.172;6.974;2023-08-17T10:03:21;2.70;;;0.70;;
52512;SDS011;38422;53.172;6.974;2023-08-17T10:05:52;3.50;;;0.90;;
52512;SDS011;38422;53.172;6.974;2023-08-17T10:08:24;2.47;;;0.68;;
52512;SDS011;38422;53.172;6.974;2023-08-17T10:10:53;3.08;;;0.80;;
52512;SDS011;38422;53.172;6.974;2023-08-17T10:13:33;3.17;;;0.90;;
52512;SDS011;38422;53.172;6.974;2023-08-17T10:16:23;3.80;;;0.90;;
52512;SDS011;38422;53.172;6.974;2023-08-17T10:21:50;3.60;;;0.70;;
52512;SDS011;38422;53.172;6.974;2023-08-17T10:24:25;2.20;;;0.70;;
52512;SDS011;38422;53.172;6.974;2023-08-17T10:26:51;3.10;;;0.90;;
52512;SDS011;38422;53.172;6.974;2023-08-17T10:29:18;3.42;;;1.00;;
52512;SDS011;38422;53.172;6.974;2023-08-17T10:31:45;2.22;;;0.65;;
52512;SDS011;38422;53.172;6.974;2023-08-17T10:34:11;2.72;;;0.88;;
52512;SDS011;38422;53.172;6.974;2023-08-17T10:36:38;1.80;;;0.70;;
52512;SDS011;38422;53.172;6.974;2023-08-17T10:41:48;4.60;;;0.88;;
52512;SDS011;38422;53.172;6.974;2023-08-17T10:44:15;2.70;;;0.80;;
52512;SDS011;38422;53.172;6.974;2023-08-17T10:47:17;3.85;;;0.82;;
52512;SDS011;38422;53.172;6.974;2023-08-17T10:49:50;3.10;;;0.95;;
52512;SDS011;38422;53.172;6.974;2023-08-17T10:52:29;2.10;;;0.88;;
52512;SDS011;38422;53.172;6.974;2023-08-17T10:55:08;4.38;;;1.30;;
52512;SDS011;38422;53.172;6.974;2023-08-17T10:57:36;2.55;;;0.80;;
52512;SDS011;38422;53.172;6.974;2023-08-17T11:02:38;3.88;;;1.00;;
52512;SDS011;38422;53.172;6.974;2023-08-17T11:05:04;1.47;;;0.73;;
52512;SDS011;38422;53.172;6.974;2023-08-17T11:07:40;4.17;;;0.80;;
52512;SDS011;38422;53.172;6.974;2023-08-17T11:12:44;3.22;;;0.90;;
52512;SDS011;38422;53.172;6.974;2023-08-17T11:15:10;3.60;;;0.90;;
52512;SDS011;38422;53.172;6.974;2023-08-17T11:17:36;2.23;;;0.87;;
52512;SDS011;38422;53.172;6.974;2023-08-17T11:20:02;2.40;;;1.00;;
52512;SDS011;38422;53.172;6.974;2023-08-17T11:22:29;3.50;;;0.90;;
52512;SDS011;38422;53.172;6.974;2023-08-17T11:24:55;1.92;;;0.80;;
52512;SDS011;38422;53.172;6.974;2023-08-17T11:27:21;3.08;;;0.82;;
52512;SDS011;38422;53.172;6.974;2023-08-17T11:29:47;2.13;;;0.70;;
52512;SDS011;38422;53.172;6.974;2023-08-17T11:32:15;2.88;;;0.90;;
52512;SDS011;38422;53.172;6.974;2023-08-17T11:34:42;2.85;;;1.00;;
52512;SDS011;38422;53.172;6.974;2023-08-17T11:37:10;2.60;;;0.67;;
52512;SDS011;38422;53.172;6.974;2023-08-17T11:39:37;2.15;;;0.90;;
52512;SDS011;38422;53.172;6.974;2023-08-17T11:42:03;2.40;;;0.90;;
52512;SDS011;38422;53.172;6.974;2023-08-17T11:44:29;3.58;;;0.88;;
52512;SDS011;38422;53.172;6.974;2023-08-17T11:46:55;2.90;;;0.90;;
52512;SDS011;38422;53.172;6.974;2023-08-17T11:49:20;4.35;;;1.00;;
52512;SDS011;38422;53.172;6.974;2023-08-17T11:51:49;1.95;;;0.90;;
52512;SDS011;38422;53.172;6.974;2023-08-17T11:54:16;4.00;;;0.80;;
52512;SDS011;38422;53.172;6.974;2023-08-17T11:56:42;2.37;;;0.67;;
52512;SDS011;38422;53.172;6.974;2023-08-17T11:59:08;1.43;;;0.80;;
52512;SDS011;38422;53.172;6.974;2023-08-17T12:01:36;2.22;;;0.70;;
52512;SDS011;38422;53.172;6.974;2023-08-17T12:04:06;2.40;;;0.80;;
52512;SDS011;38422;53.172;6.974;2023-08-17T12:06:32;2.15;;;0.70;;
52512;SDS011;38422;53.172;6.974;2023-08-17T12:08:58;1.57;;;0.80;;
52512;SDS011;38422;53.172;6.974;2023-08-17T12:11:24;2.17;;;0.80;;
52512;SDS011;38422;53.172;6.974;2023-08-17T12:13:50;1.42;;;0.60;;
52512;SDS011;38422;53.172;6.974;2023-08-17T12:16:18;2.13;;;0.90;;
52512;SDS011;38422;53.172;6.974;2023-08-17T12:18:47;2.38;;;0.80;;
52512;SDS011;38422;53.172;6.974;2023-08-17T12:23:39;1.33;;;0.60;;
52512;SDS011;38422;53.172;6.974;2023-08-17T12:26:07;2.38;;;0.95;;
52512;SDS011;38422;53.172;6.974;2023-08-17T12:28:32;2.93;;;0.90;;
52512;SDS011;38422;53.172;6.974;2023-08-17T12:31:01;3.10;;;1.10;;
52512;SDS011;38422;53.172;6.974;2023-08-17T12:33:28;2.00;;;0.82;;
52512;SDS011;38422;53.172;6.974;2023-08-17T12:35:54;1.90;;;0.90;;
52512;SDS011;38422;53.172;6.974;2023-08-17T12:38:21;1.60;;;0.80;;
52512;SDS011;38422;53.172;6.974;2023-08-17T12:40:48;3.30;;;0.88;;
52512;SDS011;38422;53.172;6.974;2023-08-17T12:43:14;2.03;;;0.90;;
52512;SDS011;38422;53.172;6.974;2023-08-17T12:45:40;2.83;;;1.00;;
52512;SDS011;38422;53.172;6.974;2023-08-17T12:48:05;3.37;;;0.90;;
52512;SDS011;38422;53.172;6.974;2023-08-17T12:50:31;4.20;;;1.20;;
52512;SDS011;38422;53.172;6.974;2023-08-17T12:52:57;2.07;;;0.80;;
52512;SDS011;38422;53.172;6.974;2023-08-17T12:55:23;2.27;;;0.97;;
52512;SDS011;38422;53.172;6.974;2023-08-17T12:57:49;3.27;;;1.30;;
52512;SDS011;38422;53.172;6.974;2023-08-17T13:00:14;2.58;;;1.00;;
52512;SDS011;38422;53.172;6.974;2023-08-17T13:02:40;2.77;;;1.00;;
52512;SDS011;38422;53.172;6.974;2023-08-17T13:05:06;2.42;;;0.95;;
52512;SDS011;38422;53.172;6.974;2023-08-17T13:07:32;2.00;;;0.90;;
52512;SDS011;38422;53.172;6.974;2023-08-17T13:09:57;2.60;;;1.00;;
52512;SDS011;38422;53.172;6.974;2023-08-17T13:12:23;1.27;;;0.90;;
52512;SDS011;38422;53.172;6.974;2023-08-17T13:14:49;4.97;;;1.10;;
52512;SDS011;38422;53.172;6.974;2023-08-17T13:17:14;3.57;;;1.23;;
52512;SDS011;38422;53.172;6.974;2023-08-17T13:19:42;5.25;;;1.23;;
52512;SDS011;38422;53.172;6.974;2023-08-17T13:22:08;2.88;;;1.20;;
52512;SDS011;38422;53.172;6.974;2023-08-17T13:24:33;2.97;;;0.93;;
52512;SDS011;38422;53.172;6.974;2023-08-17T13:26:59;3.85;;;1.02;;
52512;SDS011;38422;53.172;6.974;2023-08-17T13:29:25;3.95;;;1.10;;
52512;SDS011;38422;53.172;6.974;2023-08-17T13:31:50;3.87;;;1.10;;
52512;SDS011;38422;53.172;6.974;2023-08-17T13:34:16;3.97;;;1.00;;
52512;SDS011;38422;53.172;6.974;2023-08-17T13:36:42;3.08;;;1.25;;
52512;SDS011;38422;53.172;6.974;2023-08-17T13:39:07;4.83;;;1.20;;
52512;SDS011;38422;53.172;6.974;2023-08-17T13:41:33;3.55;;;1.10;;
52512;SDS011;38422;53.172;6.974;2023-08-17T13:43:59;3.97;;;1.57;;
52512;SDS011;38422;53.172;6.974;2023-08-17T13:46:25;2.45;;;1.10;;
52512;SDS011;38422;53.172;6.974;2023-08-17T13:48:51;3.03;;;1.30;;
52512;SDS011;38422;53.172;6.974;2023-08-17T13:51:19;2.92;;;1.30;;
52512;SDS011;38422;53.172;6.974;2023-08-17T13:53:44;3.35;;;1.38;;
52512;SDS011;38422;53.172;6.974;2023-08-17T13:56:10;2.00;;;1.20;;
52512;SDS011;38422;53.172;6.974;2023-08-17T13:58:36;3.05;;;1.38;;
52512;SDS011;38422;53.172;6.974;2023-08-17T14:01:02;2.57;;;1.17;;
52512;SDS011;38422;53.172;6.974;2023-08-17T14:03:27;3.47;;;1.30;;
52512;SDS011;38422;53.172;6.974;2023-08-17T14:05:53;3.60;;;1.30;;
52512;SDS011;38422;53.172;6.974;2023-08-17T14:08:19;4.25;;;1.20;;
52512;SDS011;38422;53.172;6.974;2023-08-17T14:10:45;2.28;;;1.13;;
52512;SDS011;38422;53.172;6.974;2023-08-17T14:13:11;2.83;;;1.38;;
52512;SDS011;38422;53.172;6.974;2023-08-17T14:15:36;3.05;;;1.35;;
52512;SDS011;38422;53.172;6.974;2023-08-17T14:18:02;2.53;;;1.40;;
52512;SDS011;38422;53.172;6.974;2023-08-17T14:20:28;4.32;;;1.75;;
52512;SDS011;38422;53.172;6.974;2023-08-17T14:22:54;4.70;;;1.60;;
52512;SDS011;38422;53.172;6.974;2023-08-17T14:25:20;3.05;;;1.33;;
52512;SDS011;38422;53.172;6.974;2023-08-17T14:27:46;2.60;;;1.13;;
52512;SDS011;38422;53.172;6.974;2023-08-17T14:30:12;3.50;;;1.50;;
52512;SDS011;38422;53.172;6.974;2023-08-17T14:32:38;6.30;;;1.40;;
52512;SDS011;38422;53.172;6.974;2023-08-17T14:35:04;3.83;;;1.60;;
52512;SDS011;38422;53.172;6.974;2023-08-17T14:37:29;3.10;;;1.50;;
52512;SDS011;38422;53.172;6.974;2023-08-17T14:39:55;2.20;;;1.50;;
52512;SDS011;38422;53.172;6.974;2023-08-17T14:42:21;3.83;;;1.42;;
52512;SDS011;38422;53.172;6.974;2023-08-17T14:44:48;2.45;;;1.20;;
52512;SDS011;38422;53.172;6.974;2023-08-17T14:47:14;3.63;;;1.40;;
52512;SDS011;38422;53.172;6.974;2023-08-17T14:49:39;4.50;;;1.60;;
52512;SDS011;38422;53.172;6.974;2023-08-17T14:52:05;2.25;;;1.45;;
52512;SDS011;38422;53.172;6.974;2023-08-17T14:54:31;3.67;;;1.85;;
52512;SDS011;38422;53.172;6.974;2023-08-17T14:56:56;4.97;;;1.90;;
52512;SDS011;38422;53.172;6.974;2023-08-17T14:59:25;4.38;;;1.90;;
52512;SDS011;38422;53.172;6.974;2023-08-17T15:01:50;2.88;;;1.65;;
52512;SDS011;38422;53.172;6.974;2023-08-17T15:04:17;3.10;;;1.40;;
52512;SDS011;38422;53.172;6.974;2023-08-17T15:06:43;3.22;;;1.75;;
52512;SDS011;38422;53.172;6.974;2023-08-17T15:09:09;3.67;;;2.08;;